Time;durP1;ratioP1;P1;durP2;ratioP2;P2;SDS_P1;SDS_P2;PMS_P1;PMS_P2;Temp;Humidity;BMP_temperature;BMP_pressure;BME280_temperature;BME280_humidity;BME280_pressure;Samples;Min_cycle;Max_cycle;Signal;HPM_P1;HPM_P2
2022/11/07 00:01:45;;;;;;;;;6.00;2.00;;;;;11.63;82.68;100531.91;5035398;28;46198;-54
2022/11/07 00:04:10;;;;;;;;;10.60;3.80;;;;;11.78;82.70;100564.56;5034998;28;45364;-57
2022/11/07 00:06:39;;;;;;;;;2.75;1.75;;;;;11.77;83.02;100554.63;5035333;28;45359;-56
2022/11/07 00:09:04;;;;;;;;;7.80;4.80;;;;;11.76;82.48;100555.72;5015419;28;45579;-53
2022/11/07 00:11:30;;;;;;;;;3.00;2.00;;;;;11.53;82.84;100510.41;5016538;28;46617;-56
2022/11/07 00:13:56;;;;;;;;;7.00;3.00;;;;;11.73;82.51;100547.03;5015082;28;45318;-53
2022/11/07 00:16:21;;;;;;;;;5.75;3.50;;;;;11.91;82.29;100565.53;5015194;28;45371;-57
2022/11/07 00:18:47;;;;;;;;;2.50;2.00;;;;;11.87;81.80;100545.03;5016872;28;45572;-57
2022/11/07 00:21:12;;;;;;;;;5.00;4.00;;;;;11.90;81.93;100550.09;5016323;28;45631;-57
2022/11/07 00:23:39;;;;;;;;;7.75;3.00;;;;;12.00;82.00;100571.56;4998610;28;45511;-61
2022/11/07 00:26:12;;;;;;;;;3.00;3.00;;;;;12.04;81.28;100573.69;4998395;28;45391;-58
2022/11/07 00:28:39;;;;;;;;;10.00;2.00;;;;;11.95;81.48;100552.16;5015421;28;45577;-53
2022/11/07 00:31:06;;;;;;;;;12.60;4.80;;;;;12.04;81.39;100568.19;5014857;28;45553;-59
2022/11/07 00:33:31;;;;;;;;;4.00;2.60;;;;;11.88;81.64;100541.19;5015023;28;45359;-58
2022/11/07 00:35:57;;;;;;;;;4.00;3.00;;;;;12.04;81.45;100570.94;4998582;28;45459;-54
2022/11/07 00:38:22;;;;;;;;;3.00;3.00;;;;;12.01;81.36;100571.34;5015334;28;45422;-58
2022/11/07 00:40:55;;;;;;;;;2.25;2.25;;;;;11.82;81.34;100534.72;5016178;28;46431;-57
2022/11/07 00:43:21;;;;;;;;;2.80;2.80;;;;;12.02;81.49;100569.44;5016509;28;45363;-58
2022/11/07 00:45:46;;;;;;;;;3.00;2.00;;;;;11.82;81.37;100545.72;5035845;28;45376;-58
2022/11/07 00:48:12;;;;;;;;;5.00;2.50;;;;;12.03;81.50;100572.00;5036083;28;45477;-58
2022/11/07 00:50:37;;;;;;;;;3.50;2.00;;;;;11.97;81.26;100555.50;5035485;28;46247;-59
2022/11/07 00:53:03;;;;;;;;;2.00;1.75;;;;;12.01;81.27;100562.25;5034376;28;45573;-57
2022/11/07 00:55:31;;;;;;;;;9.25;2.75;;;;;12.05;81.42;100566.25;5034279;28;45369;-58
2022/11/07 00:57:56;;;;;;;;;4.60;2.60;;;;;12.07;81.25;100566.88;5035637;28;45431;-58
2022/11/07 01:00:22;;;;;;;;;3.25;2.75;;;;;11.96;81.31;100554.69;5035553;28;45610;-59
2022/11/07 01:05:09;;;;;;;;;4.75;3.50;;;;;11.99;81.60;100554.22;5033834;28;45665;-59
2022/11/07 01:05:33;;;;;;;;;4.60;3.20;;;;;11.94;81.45;100548.56;5035255;28;45503;-57
2022/11/07 01:08:01;;;;;;;;;3.25;2.00;;;;;12.02;81.44;100570.25;5035665;28;45385;-57
2022/11/07 01:10:26;;;;;;;;;6.20;6.00;;;;;12.03;81.70;100563.75;5034917;28;46260;-58
2022/11/07 01:12:52;;;;;;;;;5.75;4.75;;;;;12.04;81.69;100572.81;5035331;28;45335;-57
2022/11/07 01:15:17;;;;;;;;;5.75;5.00;;;;;11.97;81.33;100550.88;5035549;28;45259;-57
2022/11/07 01:17:43;;;;;;;;;6.00;1.75;;;;;12.00;81.31;100566.91;5034463;28;45346;-58
2022/11/07 01:20:09;;;;;;;;;4.00;4.00;;;;;12.02;81.56;100570.25;5033558;28;48118;-58
2022/11/07 01:22:35;;;;;;;;;2.40;2.40;;;;;12.08;81.43;100574.06;5035035;28;45702;-57
2022/11/07 01:25:00;;;;;;;;;2.50;2.00;;;;;11.96;81.54;100557.44;5035538;28;45415;-58
2022/11/07 01:27:26;;;;;;;;;2.75;2.75;;;;;12.11;81.44;100578.28;5034111;28;46160;-58
2022/11/07 01:29:51;;;;;;;;;5.25;2.25;;;;;12.07;80.78;100567.72;5033720;28;46499;-57
2022/11/07 01:32:17;;;;;;;;;1.00;0.00;;;;;11.98;80.73;100554.44;5034120;28;45490;-59
2022/11/07 01:34:43;;;;;;;;;5.25;3.25;;;;;12.13;81.16;100570.63;5035521;28;45382;-57
2022/11/07 01:37:08;;;;;;;;;4.75;2.75;;;;;11.86;81.09;100535.94;5034061;28;45511;-58
2022/11/07 01:39:34;;;;;;;;;1.25;1.25;;;;;12.11;81.36;100567.28;5035111;28;46382;-58
2022/11/07 01:41:59;;;;;;;;;5.50;3.25;;;;;12.17;81.26;100575.44;5034785;28;45298;-56
2022/11/07 01:44:25;;;;;;;;;3.50;2.25;;;;;12.17;80.78;100580.94;5026329;28;45325;-57
2022/11/07 01:46:51;;;;;;;;;3.75;2.75;;;;;12.06;81.15;100565.19;5013817;28;45355;-58
2022/11/07 01:49:21;;;;;;;;;6.40;4.40;;;;;12.20;81.26;100590.66;5013934;28;45931;-57
2022/11/07 01:51:47;;;;;;;;;5.00;1.80;;;;;12.22;81.42;100590.44;5014896;28;45445;-57
2022/11/07 01:54:15;;;;;;;;;8.80;4.20;;;;;12.23;81.24;100592.13;4997233;28;45458;-58
2022/11/07 01:56:41;;;;;;;;;3.40;3.00;;;;;12.21;81.43;100581.34;5014163;28;45622;-58
2022/11/07 01:59:06;;;;;;;;;5.75;3.50;;;;;12.24;81.20;100594.66;4997103;28;47957;-58
2022/11/07 02:01:32;;;;;;;;;1.50;1.00;;;;;12.24;80.88;100594.66;4997327;28;45431;-58
2022/11/07 02:03:57;;;;;;;;;3.00;2.25;;;;;11.51;80.92;100476.81;4997632;28;45354;-57
2022/11/07 02:06:27;;;;;;;;;9.00;3.50;;;;;12.26;80.67;100577.91;4997213;28;45423;-56
2022/11/07 02:08:53;;;;;;;;;2.00;2.00;;;;;12.26;81.14;100581.50;5014487;28;46461;-56
2022/11/07 02:11:19;;;;;;;;;3.75;3.25;;;;;12.22;80.77;100591.28;5016375;28;45573;-57
2022/11/07 02:13:44;;;;;;;;;8.25;3.25;;;;;12.25;80.95;100584.47;5000926;28;45863;-61
2022/11/07 02:16:10;;;;;;;;;4.00;1.75;;;;;12.04;80.83;100565.44;5018813;28;45607;-56
2022/11/07 02:18:36;;;;;;;;;4.00;4.00;;;;;11.81;80.97;100522.03;5016912;28;45276;-55
2022/11/07 02:21:08;;;;;;;;;7.75;2.50;;;;;12.12;80.98;100579.97;5016701;28;45268;-58
2022/11/07 02:23:48;;;;;;;;;6.60;5.20;;;;;12.26;80.89;100592.50;5000481;28;45509;-57
2022/11/07 02:26:13;;;;;;;;;2.60;2.40;;;;;11.63;80.55;100496.16;5016860;28;45281;-58
2022/11/07 02:28:39;;;;;;;;;3.75;3.00;;;;;12.03;80.75;100561.00;5017421;28;45304;-58
2022/11/07 02:31:04;;;;;;;;;3.50;1.75;;;;;12.22;80.81;100601.44;5017697;28;45531;-56
2022/11/07 02:33:30;;;;;;;;;5.25;3.00;;;;;12.22;80.94;100602.28;5017988;28;45416;-57
2022/11/07 02:35:55;;;;;;;;;4.25;4.25;;;;;12.26;80.81;100598.00;5017209;28;45356;-57
2022/11/07 02:38:24;;;;;;;;;5.50;2.50;;;;;12.28;80.54;100606.06;5017569;28;45453;-58
2022/11/07 02:40:53;;;;;;;;;4.40;3.00;;;;;12.29;80.34;100605.84;5017929;28;45758;-58
2022/11/07 02:43:19;;;;;;;;;2.80;2.80;;;;;12.27;80.30;100594.19;5016348;28;45464;-59
2022/11/07 02:45:45;;;;;;;;;4.80;3.00;;;;;12.35;79.94;100606.81;5031708;28;45505;-57
2022/11/07 02:48:11;;;;;;;;;4.50;4.00;;;;;12.28;80.31;100579.34;5036231;28;46535;-55
2022/11/07 02:50:36;;;;;;;;;3.25;3.00;;;;;12.34;80.23;100594.97;5037721;28;45436;-57
2022/11/07 02:53:02;;;;;;;;;5.00;2.25;;;;;12.33;79.88;100584.19;5037537;28;45492;-57
2022/11/07 02:55:28;;;;;;;;;3.00;2.00;;;;;12.07;79.62;100540.19;5019953;28;45435;-56
2022/11/07 02:57:53;;;;;;;;;1.50;1.00;;;;;12.33;79.73;100575.94;5037165;28;46072;-53
2022/11/07 03:00:19;;;;;;;;;2.50;1.00;;;;;12.34;79.97;100572.13;5035869;28;45451;-58
2022/11/07 03:02:47;;;;;;;;;4.50;2.00;;;;;12.36;79.97;100574.63;4988174;28;45396;-56
2022/11/07 03:05:14;;;;;;;;;3.60;2.00;;;;;12.32;79.69;100579.75;5017882;28;45399;-57
2022/11/07 03:07:41;;;;;;;;;5.40;3.00;;;;;12.31;79.81;100570.66;5015843;28;45722;-57
2022/11/07 03:10:08;;;;;;;;;3.00;2.00;;;;;12.33;79.79;100575.94;5015989;28;45351;-57
2022/11/07 03:12:33;;;;;;;;;4.60;2.60;;;;;12.32;79.92;100575.09;5017462;28;45514;-58
2022/11/07 03:14:59;;;;;;;;;1.75;1.75;;;;;12.11;80.00;100562.59;5017649;28;45422;-56
2022/11/07 03:17:24;;;;;;;;;4.75;2.00;;;;;11.60;79.68;100471.03;4982839;28;47959;-57
2022/11/07 03:19:50;;;;;;;;;4.00;2.00;;;;;12.33;79.82;100584.19;4999521;28;45377;-56
2022/11/07 03:22:15;;;;;;;;;5.75;1.75;;;;;12.34;79.92;100594.13;5017311;28;45315;-56
2022/11/07 03:24:41;;;;;;;;;3.75;3.75;;;;;12.16;79.73;100561.91;4982901;28;45257;-57
2022/11/07 03:27:06;;;;;;;;;4.50;2.75;;;;;12.36;79.70;100594.75;5016876;28;45986;-57
2022/11/07 03:29:32;;;;;;;;;4.25;2.00;;;;;12.36;79.86;100589.25;4999405;28;45361;-57
2022/11/07 03:31:57;;;;;;;;;5.25;2.00;;;;;12.09;79.12;100558.38;5015873;28;45496;-58
2022/11/07 03:34:23;;;;;;;;;2.00;2.00;;;;;12.39;79.56;100602.53;5016336;28;45474;-60
2022/11/07 03:36:48;;;;;;;;;3.75;3.00;;;;;12.39;79.62;100608.03;5016800;28;46158;-59
2022/11/07 03:39:14;;;;;;;;;3.75;1.75;;;;;12.39;79.42;100597.03;5015713;28;45312;-59
2022/11/07 03:41:39;;;;;;;;;3.00;2.00;;;;;12.44;79.43;100599.13;5016845;28;45358;-57
2022/11/07 03:44:05;;;;;;;;;4.25;2.75;;;;;12.21;79.52;100562.06;5016881;28;45382;-60
2022/11/07 03:46:30;;;;;;;;;7.00;3.50;;;;;12.42;79.43;100598.47;5036625;28;46996;-57
2022/11/07 03:48:56;;;;;;;;;9.25;4.75;;;;;12.43;79.56;100591.94;5036470;28;45494;-57
2022/11/07 03:51:21;;;;;;;;;2.75;2.25;;;;;12.44;79.32;100585.34;5036571;28;45433;-56
2022/11/07 03:53:47;;;;;;;;;5.00;4.50;;;;;11.81;80.02;100480.78;5036655;28;45355;-53
2022/11/07 03:56:12;;;;;;;;;3.50;3.50;;;;;12.41;79.67;100580.28;5036471;28;45924;-54
2022/11/07 03:58:38;;;;;;;;;5.25;2.50;;;;;12.45;79.31;100584.28;5036424;28;45434;-54
2022/11/07 04:01:04;;;;;;;;;2.00;1.75;;;;;12.45;79.77;100584.28;5036647;28;45477;-55
2022/11/07 04:03:29;;;;;;;;;4.50;2.75;;;;;12.22;79.44;100540.91;5036762;28;45330;-56
2022/11/07 04:05:55;;;;;;;;;1.50;1.00;;;;;12.39;79.91;100575.00;5016416;28;46537;-56
2022/11/07 04:08:20;;;;;;;;;6.00;3.00;;;;;12.44;79.88;100574.34;5015020;28;45275;-54
2022/11/07 04:10:46;;;;;;;;;1.50;1.50;;;;;12.43;79.66;100584.50;5015637;28;45287;-55
2022/11/07 04:18:53;;;;;;;;;3.00;2.00;;;;;12.45;79.69;100582.34;4992988;28;45579;-56
2022/11/07 04:21:19;;;;;;;;;3.50;2.50;;;;;12.42;79.80;100565.44;5016231;28;45955;-54
2022/11/07 04:23:44;;;;;;;;;3.25;3.25;;;;;12.43;80.07;100572.66;5016224;28;45505;-53
2022/11/07 04:28:53;;;;;;;;;5.00;2.00;;;;;12.41;79.88;100577.53;5014830;28;45236;-54
2022/11/07 04:31:19;;;;;;;;;2.75;2.75;;;;;12.39;80.27;100580.50;5015384;28;45354;-54
2022/11/07 04:33:44;;;;;;;;;2.50;2.50;;;;;12.40;80.08;100586.88;5015831;28;45575;-56
2022/11/07 04:36:10;;;;;;;;;2.00;2.00;;;;;11.78;79.87;100481.22;5015868;28;45360;-56
2022/11/07 04:38:35;;;;;;;;;2.00;2.00;;;;;12.44;79.75;100585.34;5016108;28;45794;-52
2022/11/07 04:41:01;;;;;;;;;3.50;2.25;;;;;12.25;79.80;100562.47;5016020;28;45456;-55
2022/11/07 04:43:27;;;;;;;;;4.00;2.00;;;;;12.44;80.09;100588.09;4997831;28;45788;-56
2022/11/07 04:45:53;;;;;;;;;2.80;1.60;;;;;12.45;79.80;100592.53;5031730;28;46160;-55
2022/11/07 04:48:18;;;;;;;;;7.75;3.00;;;;;12.47;79.98;100590.38;5035373;28;45535;-56
2022/11/07 04:50:44;;;;;;;;;2.00;2.00;;;;;12.48;79.89;100597.56;5036028;28;45401;-57
2022/11/07 04:53:13;;;;;;;;;3.25;1.75;;;;;12.40;79.88;100582.22;5035702;28;45280;-53
2022/11/07 04:55:39;;;;;;;;;4.80;2.60;;;;;12.45;80.38;100590.59;5035475;28;46614;-56
2022/11/07 04:58:04;;;;;;;;;3.00;2.25;;;;;12.46;80.09;100588.72;5035144;28;45331;-56
2022/11/07 05:00:30;;;;;;;;;6.00;4.50;;;;;12.47;80.31;100591.25;5035669;28;45450;-54
2022/11/07 05:02:55;;;;;;;;;2.75;2.75;;;;;12.49;80.11;100587.41;5035896;28;45334;-54
2022/11/07 05:05:21;;;;;;;;;3.00;3.00;;;;;12.49;80.28;100595.66;5035301;28;45385;-55
2022/11/07 05:07:46;;;;;;;;;4.75;3.00;;;;;12.49;80.14;100599.25;5035219;28;45416;-54
2022/11/07 05:10:16;;;;;;;;;5.25;2.00;;;;;12.49;80.60;100592.91;5034045;28;45515;-56
2022/11/07 05:12:42;;;;;;;;;6.00;3.80;;;;;12.51;80.06;100579.75;5017607;28;45758;-54
2022/11/07 05:15:07;;;;;;;;;3.50;3.00;;;;;12.44;80.14;100575.16;5035085;28;46117;-54
2022/11/07 05:17:33;;;;;;;;;4.00;3.00;;;;;12.52;80.27;100578.69;5033653;28;45362;-56
2022/11/07 05:19:58;;;;;;;;;3.00;2.00;;;;;12.53;80.29;100570.19;5034276;28;45773;-57
2022/11/07 05:25:08;;;;;;;;;7.80;3.80;;;;;12.43;80.15;100567.97;5034631;28;45856;-56
2022/11/07 05:27:33;;;;;;;;;0.20;0.20;;;;;12.55;80.00;100583.75;5033888;28;45390;-55
2022/11/07 05:29:59;;;;;;;;;2.50;1.50;;;;;12.54;80.20;100585.66;5035364;28;45434;-54
2022/11/07 05:32:25;;;;;;;;;4.25;1.50;;;;;12.53;80.06;100600.47;5035202;28;45366;-56
2022/11/07 05:34:50;;;;;;;;;4.75;3.25;;;;;12.54;80.44;100599.41;5034993;28;45718;-57
2022/11/07 05:37:15;;;;;;;;;7.25;3.75;;;;;12.55;80.35;100594.75;5035145;28;45396;-57
2022/11/07 05:39:41;;;;;;;;;3.75;3.75;;;;;12.34;80.45;100572.94;5035131;28;45333;-55
2022/11/07 05:42:06;;;;;;;;;2.50;2.50;;;;;12.56;80.29;100605.56;5035201;28;45578;-55
2022/11/07 05:44:32;;;;;;;;;4.25;2.75;;;;;12.59;80.26;100609.72;5028775;28;46032;-54
2022/11/07 05:46:58;;;;;;;;;2.00;2.00;;;;;12.59;80.17;100610.59;5013379;28;46004;-53
2022/11/07 05:49:23;;;;;;;;;4.50;2.25;;;;;12.56;80.28;100601.94;4982296;28;45593;-57
2022/11/07 05:51:49;;;;;;;;;2.50;2.50;;;;;12.63;80.28;100607.38;4991933;28;45429;-56
2022/11/07 05:54:15;;;;;;;;;2.75;2.25;;;;;12.66;80.21;100612.44;4993867;28;45928;-55
2022/11/07 05:56:42;;;;;;;;;2.25;2.25;;;;;12.66;80.12;100618.78;4991186;28;45357;-55
2022/11/07 05:59:08;;;;;;;;;3.60;1.00;;;;;12.65;79.99;100616.25;4994179;28;45298;-55
2022/11/07 06:01:34;;;;;;;;;5.00;3.50;;;;;12.66;79.62;100606.91;4995511;28;45364;-54
2022/11/07 06:03:59;;;;;;;;;5.25;2.00;;;;;12.68;79.71;100618.53;4994660;28;45854;-52
2022/11/07 06:06:25;;;;;;;;;5.75;3.25;;;;;12.70;79.73;100608.16;4995141;28;45410;-55
2022/11/07 06:08:50;;;;;;;;;3.00;2.00;;;;;12.71;79.27;100610.66;4995065;28;45473;-57
2022/11/07 06:11:16;;;;;;;;;3.00;2.50;;;;;12.71;79.21;100607.91;4995401;28;45512;-52
2022/11/07 06:13:41;;;;;;;;;3.00;2.00;;;;;12.69;79.47;100601.78;4993556;28;46060;-56
2022/11/07 06:16:07;;;;;;;;;1.00;1.00;;;;;12.65;79.25;100602.50;4994979;28;45397;-57
2022/11/07 06:18:36;;;;;;;;;1.00;1.00;;;;;12.72;79.30;100611.50;4995121;28;45538;-52
2022/11/07 06:21:02;;;;;;;;;4.20;0.00;;;;;12.42;78.80;100560.81;4995221;28;45587;-54
2022/11/07 06:23:27;;;;;;;;;4.75;2.00;;;;;12.63;79.49;100602.72;4993270;28;45420;-56
2022/11/07 06:25:52;;;;;;;;;3.75;2.75;;;;;12.65;79.27;100619.00;4994967;28;45969;-57
2022/11/07 06:28:18;;;;;;;;;4.00;2.25;;;;;12.73;79.35;100630.56;4993801;28;45456;-57
2022/11/07 06:30:44;;;;;;;;;2.75;2.75;;;;;12.76;79.23;100634.78;4995068;28;45402;-56
2022/11/07 06:33:12;;;;;;;;;2.50;2.00;;;;;12.77;79.33;100635.59;4994668;28;45623;-57
2022/11/07 06:35:37;;;;;;;;;1.00;1.00;;;;;12.76;79.42;100639.44;4994821;28;45547;-56
2022/11/07 06:38:04;;;;;;;;;3.00;3.00;;;;;12.79;79.37;100641.72;4994682;28;45283;-58
2022/11/07 06:40:29;;;;;;;;;4.40;3.60;;;;;12.80;79.64;100644.25;4961495;28;45367;-53
2022/11/07 06:42:55;;;;;;;;;3.75;3.00;;;;;12.54;79.49;100598.59;4994276;28;45409;-54
2022/11/07 06:45:21;;;;;;;;;4.25;3.75;;;;;12.81;79.43;100640.41;5010038;28;45239;-57
2022/11/07 06:47:46;;;;;;;;;5.00;2.25;;;;;12.80;79.47;100635.97;5034376;28;45179;-59
2022/11/07 06:50:12;;;;;;;;;3.00;2.00;;;;;12.78;79.24;100631.78;5033621;28;45217;-56
2022/11/07 06:52:38;;;;;;;;;4.75;3.25;;;;;12.65;79.36;100613.50;5034086;28;46630;-56
2022/11/07 06:55:04;;;;;;;;;9.25;3.75;;;;;12.82;79.54;100655.03;5033747;28;45356;-56
2022/11/07 06:57:29;;;;;;;;;3.25;2.25;;;;;12.47;79.59;100593.13;5037979;28;45221;-57
2022/11/07 06:59:55;;;;;;;;;9.50;5.00;;;;;12.85;79.36;100652.66;5037885;28;45251;-58
2022/11/07 07:02:20;;;;;;;;;4.25;3.00;;;;;12.87;79.58;100649.69;5036089;28;45996;-56
2022/11/07 07:04:49;;;;;;;;;6.25;4.00;;;;;12.89;79.50;100650.28;5037372;28;45393;-56
2022/11/07 07:07:14;;;;;;;;;3.40;3.20;;;;;12.87;79.54;100641.44;5036381;28;45434;-56
2022/11/07 07:09:40;;;;;;;;;2.25;1.50;;;;;12.91;79.56;100650.06;5037779;28;45373;-59
2022/11/07 07:12:06;;;;;;;;;1.75;1.00;;;;;12.91;79.60;100650.06;5037249;28;46195;-57
2022/11/07 07:14:31;;;;;;;;;5.00;3.00;;;;;12.24;79.81;100556.13;5037236;28;45225;-54
2022/11/07 07:16:58;;;;;;;;;3.00;2.00;;;;;12.81;79.89;100648.69;5037428;28;45252;-55
2022/11/07 07:19:23;;;;;;;;;4.60;3.40;;;;;12.70;79.62;100624.69;5037429;28;45326;-55
2022/11/07 07:21:49;;;;;;;;;1.00;1.00;;;;;12.74;79.93;100640.50;5037398;28;45373;-58
2022/11/07 07:24:14;;;;;;;;;3.00;3.00;;;;;12.90;80.06;100651.16;5037156;28;45313;-54
2022/11/07 07:26:40;;;;;;;;;3.00;1.25;;;;;12.35;79.37;100568.28;5037181;28;45574;-54
2022/11/07 07:29:05;;;;;;;;;5.25;2.50;;;;;12.98;79.42;100670.94;5036780;28;45545;-54
2022/11/07 07:31:31;;;;;;;;;3.25;3.00;;;;;12.76;79.91;100629.28;5036821;28;45789;-54
2022/11/07 07:33:57;;;;;;;;;3.75;1.50;;;;;12.99;79.91;100664.38;5035220;28;45440;-55
2022/11/07 07:36:22;;;;;;;;;3.75;2.00;;;;;13.04;79.51;100663.69;5035392;28;45420;-56
2022/11/07 07:38:48;;;;;;;;;7.00;2.50;;;;;12.81;79.54;100625.81;5018949;28;45630;-53
2022/11/07 07:41:14;;;;;;;;;2.00;2.00;;;;;12.90;79.76;100649.22;5033719;28;45500;-55
2022/11/07 07:43:39;;;;;;;;;4.25;3.00;;;;;13.10;79.34;100670.19;5035081;28;45409;-54
2022/11/07 07:46:06;;;;;;;;;4.50;3.00;;;;;12.90;79.26;100632.69;5024180;28;45278;-57
2022/11/07 07:48:32;;;;;;;;;4.60;1.80;;;;;13.09;79.75;100668.50;5017068;28;45558;-56
2022/11/07 07:50:57;;;;;;;;;0.75;0.75;;;;;12.71;79.51;100604.31;5016355;28;45983;-54
2022/11/07 07:53:23;;;;;;;;;2.50;2.00;;;;;13.15;79.67;100676.66;5014837;28;45360;-55
2022/11/07 07:55:48;;;;;;;;;4.00;3.50;;;;;13.19;79.33;100667.97;5013651;28;45332;-57
2022/11/07 07:58:14;;;;;;;;;3.00;2.25;;;;;13.22;79.21;100661.97;5016038;28;45267;-59
2022/11/07 08:00:39;;;;;;;;;5.00;5.00;;;;;13.23;79.38;100672.75;5013445;28;47187;-59
2022/11/07 08:03:07;;;;;;;;;4.00;3.00;;;;;13.23;79.44;100675.53;5016354;28;45747;-58
2022/11/07 08:05:32;;;;;;;;;6.60;4.60;;;;;13.29;79.33;100682.03;5016264;28;45379;-56
2022/11/07 08:07:58;;;;;;;;;18.50;13.75;;;;;13.29;79.12;100684.81;5014096;28;45482;-60
2022/11/07 08:10:29;;;;;;;;;5.00;4.50;;;;;13.29;79.70;100687.56;5015965;28;45524;-58
2022/11/07 08:12:55;;;;;;;;;5.00;5.00;;;;;12.99;79.40;100634.09;4998121;28;45450;-56
2022/11/07 08:15:21;;;;;;;;;3.00;3.00;;;;;13.31;79.06;100690.91;5015764;28;45434;-58
2022/11/07 08:17:46;;;;;;;;;2.75;1.00;;;;;13.37;78.92;100694.66;5016230;28;45563;-57
2022/11/07 08:20:13;;;;;;;;;3.00;3.00;;;;;13.38;79.54;100707.34;5016449;28;46320;-54
2022/11/07 08:22:39;;;;;;;;;2.80;2.40;;;;;13.39;78.79;100704.38;5015647;28;45379;-51
2022/11/07 08:25:05;;;;;;;;;4.25;3.50;;;;;13.20;78.76;100677.91;5014733;28;45418;-56
2022/11/07 08:27:30;;;;;;;;;12.00;8.80;;;;;13.46;79.15;100707.09;5014900;28;45639;-55
2022/11/07 08:29:56;;;;;;;;;9.00;5.00;;;;;13.52;78.85;100705.31;5015874;28;46461;-53
2022/11/07 08:32:22;;;;;;;;;3.00;2.00;;;;;13.52;78.36;100700.66;5014753;28;45453;-52
2022/11/07 08:34:48;;;;;;;;;2.20;2.20;;;;;13.52;78.18;100688.75;5015098;28;45320;-55
2022/11/07 08:37:13;;;;;;;;;3.00;1.75;;;;;13.59;78.07;100702.44;5016530;28;45342;-52
2022/11/07 08:39:39;;;;;;;;;3.50;1.75;;;;;13.69;78.21;100708.25;5015731;28;46738;-54
2022/11/07 08:42:04;;;;;;;;;4.50;3.25;;;;;13.78;77.83;100703.25;5015798;28;45380;-54
2022/11/07 08:44:33;;;;;;;;;1.75;1.75;;;;;13.85;77.75;100703.13;5011349;28;45541;-56
2022/11/07 08:46:59;;;;;;;;;6.00;4.80;;;;;13.90;76.81;100704.13;5006461;28;45790;-56
2022/11/07 08:49:24;;;;;;;;;3.50;2.00;;;;;13.99;77.24;100710.16;5012016;28;45442;-58
2022/11/07 08:51:50;;;;;;;;;2.00;0.00;;;;;14.02;76.81;100714.34;5020025;28;45412;-57
2022/11/07 08:54:16;;;;;;;;;3.25;2.00;;;;;14.02;76.73;100703.31;5029204;28;45695;-56
2022/11/07 08:56:41;;;;;;;;;5.50;2.25;;;;;14.02;76.80;100709.69;5013891;28;45639;-55
2022/11/07 08:59:08;;;;;;;;;4.50;1.25;;;;;14.07;76.43;100709.81;5013859;28;45590;-55
2022/11/07 09:01:34;;;;;;;;;1.40;1.40;;;;;14.03;76.44;100702.25;5013646;28;45423;-54
2022/11/07 09:03:59;;;;;;;;;3.00;3.00;;;;;13.99;76.40;100718.44;5013517;28;45385;-52
2022/11/07 09:06:25;;;;;;;;;3.00;2.00;;;;;13.92;76.96;100715.78;4968412;28;46866;-55
2022/11/07 09:08:50;;;;;;;;;4.75;3.00;;;;;13.92;77.08;100721.28;4973772;28;45449;-54
2022/11/07 09:11:17;;;;;;;;;1.00;1.00;;;;;13.89;76.82;100709.88;4972333;28;45522;-56
2022/11/07 09:13:46;;;;;;;;;3.60;2.00;;;;;13.94;76.74;100718.31;4956457;28;45426;-58
2022/11/07 09:16:11;;;;;;;;;3.60;2.20;;;;;13.99;76.63;100734.16;4972869;28;45509;-56
2022/11/07 09:18:40;;;;;;;;;3.00;3.00;;;;;14.03;77.05;100735.38;4983436;28;45706;-60
2022/11/07 09:21:05;;;;;;;;;3.20;2.00;;;;;14.07;76.41;100728.28;4976171;28;45418;-57
2022/11/07 09:23:31;;;;;;;;;6.25;2.50;;;;;14.10;76.62;100731.41;4979434;28;45406;-55
2022/11/07 09:26:20;;;;;;;;;5.20;3.00;;;;;14.13;76.53;100734.81;4983811;28;45612;-56
2022/11/07 09:28:51;;;;;;;;;4.20;3.00;;;;;14.19;76.60;100731.91;4992770;28;45516;-57
2022/11/07 09:31:16;;;;;;;;;1.80;1.80;;;;;14.26;75.95;100714.41;4987715;28;45507;-56
2022/11/07 09:33:42;;;;;;;;;2.75;1.00;;;;;14.41;75.53;100725.00;5012521;28;45517;-56
2022/11/07 09:36:10;;;;;;;;;4.75;3.75;;;;;14.32;75.35;100710.69;4997457;28;45607;-56
2022/11/07 09:38:35;;;;;;;;;2.20;1.00;;;;;14.35;75.45;100715.72;4991400;28;48003;-55
2022/11/07 09:41:33;;;;;;;;;6.00;3.00;;;;;14.43;75.64;100720.06;4992313;28;45390;-55
2022/11/07 09:44:30;;;;;;;;;3.80;2.60;;;;;14.43;75.54;100700.75;4979212;28;45378;-54
2022/11/07 09:47:00;;;;;;;;;1.40;1.40;;;;;14.58;75.09;100714.09;4983423;28;45683;-56
2022/11/07 09:49:40;;;;;;;;;3.20;1.60;;;;;14.69;74.53;100718.78;5012992;28;45739;-55
2022/11/07 09:52:39;;;;;;;;;2.00;1.00;;;;;14.78;74.52;100713.75;4992478;28;45418;-56
2022/11/07 09:55:24;;;;;;;;;4.20;1.00;;;;;14.75;74.15;100722.53;5002712;28;45604;-55
2022/11/07 09:57:53;;;;;;;;;2.80;2.80;;;;;14.74;74.21;100718.91;5012270;28;45608;-54
2022/11/07 10:00:19;;;;;;;;;5.60;3.00;;;;;14.76;74.05;100719.53;5019919;28;47826;-54
2022/11/07 10:02:49;;;;;;;;;3.40;2.40;;;;;14.79;74.16;100709.06;4992175;28;45425;-54
2022/11/07 10:05:32;;;;;;;;;2.40;2.00;;;;;14.74;73.41;100713.38;4992107;28;45815;-56
2022/11/07 10:08:06;;;;;;;;;1.40;1.20;;;;;14.22;73.73;100636.75;4992531;28;45743;-54
2022/11/07 10:11:07;;;;;;;;;2.80;1.00;;;;;14.80;73.75;100719.88;4965830;28;48535;-55
2022/11/07 10:13:45;;;;;;;;;3.40;2.00;;;;;14.89;73.03;100726.72;4984570;28;45403;-54
2022/11/07 10:16:32;;;;;;;;;2.20;2.00;;;;;14.84;72.93;100715.53;4990017;28;45679;-54
2022/11/07 10:19:25;;;;;;;;;3.80;2.20;;;;;14.77;73.48;100701.00;4991713;28;45767;-56
2022/11/07 10:21:58;;;;;;;;;4.40;3.00;;;;;14.99;73.08;100722.53;4994371;28;45694;-52
2022/11/07 10:24:37;;;;;;;;;4.80;4.00;;;;;15.01;72.70;100717.59;5011937;28;45900;-56
2022/11/07 10:27:02;;;;;;;;;4.00;3.00;;;;;14.85;72.48;100681.34;4971028;28;45477;-57
2022/11/07 10:29:51;;;;;;;;;2.75;1.75;;;;;15.28;72.08;100698.56;4983737;28;45899;-54
2022/11/07 10:32:45;;;;;;;;;6.60;3.00;;;;;15.61;71.01;100711.88;4959893;28;46565;-55
2022/11/07 10:35:31;;;;;;;;;3.60;2.60;;;;;15.57;71.38;100706.88;4979138;28;45516;-53
2022/11/07 10:37:59;;;;;;;;;6.60;4.00;;;;;15.51;71.03;100702.31;4994966;28;45346;-53
2022/11/07 10:40:34;;;;;;;;;2.20;1.60;;;;;15.44;71.06;100704.38;4994260;28;45577;-55
2022/11/07 10:43:02;;;;;;;;;5.20;2.60;;;;;15.42;71.42;100701.84;4979404;28;46640;-55
2022/11/07 10:45:28;;;;;;;;;4.80;3.60;;;;;15.45;70.91;100706.06;4995036;28;45488;-52
2022/11/07 10:47:56;;;;;;;;;4.20;2.40;;;;;15.45;71.74;100711.59;4960212;28;45855;-53
2022/11/07 10:50:23;;;;;;;;;2.00;2.00;;;;;15.13;71.06;100660.38;4992466;28;45537;-60
2022/11/07 10:52:53;;;;;;;;;3.60;2.00;;;;;15.43;71.35;100702.72;5000221;28;45750;-59
2022/11/07 10:55:18;;;;;;;;;5.00;2.20;;;;;15.36;71.57;100702.00;4999528;28;45410;-55
2022/11/07 10:57:46;;;;;;;;;4.00;2.75;;;;;15.23;71.90;100692.91;5015647;28;45478;-58
2022/11/07 11:00:26;;;;;;;;;4.40;3.00;;;;;15.28;71.97;100709.59;4999865;28;45551;-56
2022/11/07 11:02:52;;;;;;;;;2.80;2.40;;;;;14.96;72.05;100648.38;5017944;28;45838;-56
2022/11/07 11:05:27;;;;;;;;;3.00;3.00;;;;;15.49;71.33;100715.56;5017543;28;45466;-59
2022/11/07 11:07:54;;;;;;;;;1.40;1.40;;;;;15.60;71.20;100708.28;5017668;28;45353;-60
2022/11/07 11:10:21;;;;;;;;;2.40;0.40;;;;;15.70;70.84;100693.81;5001794;28;45601;-57
2022/11/07 11:12:47;;;;;;;;;3.80;1.60;;;;;16.00;70.17;100706.56;4987243;28;45397;-60
2022/11/07 11:15:18;;;;;;;;;2.75;1.00;;;;;16.75;67.42;100698.06;4997609;28;45346;-58
2022/11/07 11:17:44;;;;;;;;;6.40;3.00;;;;;18.43;63.73;100699.72;4997437;28;45383;-59
2022/11/07 11:20:30;;;;;;;;;2.00;2.00;;;;;19.19;59.64;100688.50;4996360;28;45277;-59
2022/11/07 11:22:55;;;;;;;;;3.40;2.40;;;;;19.42;59.48;100678.84;4997169;28;45597;-61
2022/11/07 11:25:22;;;;;;;;;4.00;3.00;;;;;20.49;56.31;100658.91;4997497;28;45333;-61
2022/11/07 11:27:50;;;;;;;;;2.40;2.40;;;;;20.28;56.39;100669.28;4997051;28;45313;-60
2022/11/07 11:30:18;;;;;;;;;3.20;2.60;;;;;19.99;56.74;100683.72;4964082;28;45920;-61
2022/11/07 11:32:57;;;;;;;;;5.00;5.00;;;;;19.69;57.18;100691.72;4995520;28;45534;-61
2022/11/07 11:35:41;;;;;;;;;3.80;3.60;;;;;19.18;58.35;100647.91;5014354;28;45437;-60
2022/11/07 11:38:23;;;;;;;;;5.20;3.20;;;;;19.43;58.11;100688.06;5003190;28;45419;-59